createdAt,value
2023-08-11T00:03:44.618Z,16.67
2023-08-11T00:08:50.165Z,13.55
2023-08-11T00:13:55.298Z,15.07
2023-08-11T00:18:59.922Z,13.43
2023-08-11T00:24:06.992Z,16.05
2023-08-11T00:29:12.591Z,18.08
2023-08-11T00:34:17.328Z,15.05
2023-08-11T00:39:23.460Z,14.35
2023-08-11T00:44:28.333Z,17.77
2023-08-11T00:54:39.070Z,12.65
2023-08-11T00:59:44.061Z,15.40
2023-08-11T01:04:49.347Z,11.45
2023-08-11T01:10:07.848Z,12.18
2023-08-11T01:15:21.926Z,14.25
2023-08-11T01:20:27.408Z,18.17
2023-08-11T01:25:34.630Z,11.32
2023-08-11T01:30:39.422Z,14.77
2023-08-11T01:35:43.711Z,14.23
2023-08-11T01:40:51.405Z,10.27
2023-08-11T01:45:57.973Z,10.38
2023-08-11T01:51:02.409Z,13.32
2023-08-11T01:56:08.552Z,14.27
2023-08-11T02:01:14.364Z,13.50
2023-08-11T02:06:18.718Z,14.65
2023-08-11T02:11:24.319Z,13.25
2023-08-11T02:16:28.610Z,16.10
2023-08-11T02:21:33.061Z,14.23
2023-08-11T02:26:39.432Z,18.00
2023-08-11T02:31:43.588Z,15.70
2023-08-11T02:36:48.382Z,13.52
2023-08-11T02:41:53.929Z,12.18
2023-08-11T02:46:58.495Z,11.82
2023-08-11T02:52:02.860Z,16.05
2023-08-11T02:57:08.903Z,12.00
2023-08-11T03:02:13.146Z,13.15
2023-08-11T03:07:18.464Z,12.25
2023-08-11T03:12:24.237Z,13.05
2023-08-11T03:17:29.618Z,11.35
2023-08-11T03:22:34.078Z,15.60
2023-08-11T03:27:43.860Z,10.93
2023-08-11T03:32:54.535Z,11.23
2023-08-11T03:38:07.628Z,14.40
2023-08-11T03:43:14.187Z,15.65
2023-08-11T03:48:18.758Z,12.23
2023-08-11T03:53:23.906Z,10.02
2023-08-11T03:58:30.964Z,10.02
2023-08-11T04:03:35.659Z,10.70
2023-08-11T04:08:40.051Z,13.75
2023-08-11T04:13:45.770Z,10.88
2023-08-11T04:18:50.002Z,10.80
2023-08-11T04:23:54.625Z,11.68
2023-08-11T04:29:02.797Z,11.77
2023-08-11T04:34:07.547Z,12.10
2023-08-11T04:39:12.180Z,10.30
2023-08-11T04:44:18.479Z,9.45
2023-08-11T04:49:23.113Z,16.77
2023-08-11T04:54:27.736Z,12.07
2023-08-11T04:59:34.657Z,17.98
2023-08-11T05:04:39.955Z,18.77
2023-08-11T05:09:45.162Z,16.02
2023-08-11T05:14:50.900Z,11.65
2023-08-11T05:19:55.262Z,15.02
2023-08-11T05:24:59.674Z,14.35
2023-08-11T05:30:09.554Z,17.98
2023-08-11T05:35:14.663Z,13.07
2023-08-11T05:40:19.014Z,12.63
2023-08-11T05:45:24.779Z,11.95
2023-08-11T05:50:28.932Z,10.40
2023-08-11T05:55:33.286Z,11.60
2023-08-11T06:00:39.243Z,9.27
2023-08-11T06:05:43.899Z,15.35
2023-08-11T06:10:48.239Z,11.30
2023-08-11T06:15:54.216Z,10.57
2023-08-11T06:20:58.805Z,8.85
2023-08-11T06:26:03.509Z,15.35
2023-08-11T06:31:11.745Z,11.35
2023-08-11T06:36:16.450Z,7.05
2023-08-11T06:41:20.905Z,5.90
2023-08-11T06:46:26.628Z,12.10
2023-08-11T06:51:30.862Z,6.93
2023-08-11T06:56:35.890Z,6.28
2023-08-11T07:01:42.230Z,7.78
2023-08-11T07:06:47.173Z,7.28
2023-08-11T07:11:51.316Z,6.45
2023-08-11T07:16:56.851Z,5.50
2023-08-11T07:22:01.059Z,7.35
2023-08-11T07:27:05.788Z,6.95
2023-08-11T07:32:12.594Z,6.28
2023-08-11T07:37:17.128Z,3.72
2023-08-11T07:42:21.363Z,3.55
2023-08-11T07:47:28.206Z,4.40
2023-08-11T07:52:32.835Z,6.07
2023-08-11T07:57:37.423Z,5.63
2023-08-11T08:07:48.308Z,5.10
2023-08-11T08:12:53.432Z,3.38
2023-08-11T08:17:59.341Z,2.47
2023-08-11T08:23:04.387Z,5.32
2023-08-11T08:28:09.195Z,1.80
2023-08-11T08:33:14.818Z,2.30
2023-08-11T08:38:19.123Z,2.22
2023-08-11T08:48:40.977Z,1.77
2023-08-11T08:53:45.804Z,3.53
2023-08-11T08:58:50.326Z,1.50
2023-08-11T09:09:01.296Z,2.20
2023-08-11T09:14:05.788Z,2.10
2023-08-11T09:19:14.433Z,2.60
2023-08-11T09:24:18.607Z,2.35
2023-08-11T09:34:29.081Z,1.43
2023-08-11T09:39:33.921Z,2.40
2023-08-11T09:44:40.086Z,2.05
2023-08-11T09:49:45.631Z,3.38
2023-08-11T09:54:52.293Z,1.92
2023-08-11T09:59:59.120Z,3.35
2023-08-11T10:05:09.477Z,2.13
2023-08-11T10:10:18.695Z,1.58
2023-08-11T10:15:27.953Z,2.90
2023-08-11T10:20:34.789Z,2.08
2023-08-11T10:25:39.873Z,2.25
2023-08-11T10:30:44.363Z,2.72
2023-08-11T10:35:54.653Z,2.05
2023-08-11T10:41:02.520Z,3.60
2023-08-11T10:46:25.439Z,1.75
2023-08-11T10:51:35.243Z,2.30
2023-08-11T10:56:42.162Z,4.53
2023-08-11T11:01:51.799Z,1.98
2023-08-11T11:07:05.049Z,2.13
2023-08-11T11:12:10.147Z,3.38
2023-08-11T11:17:16.115Z,1.40
2023-08-11T11:22:23.055Z,2.63
2023-08-11T11:27:27.598Z,2.60
2023-08-11T11:32:31.810Z,3.33
2023-08-11T11:37:39.057Z,1.75
2023-08-11T11:42:44.127Z,3.92
2023-08-11T11:47:48.890Z,3.45
2023-08-11T11:52:55.630Z,3.00
2023-08-11T11:58:00.211Z,1.73
2023-08-11T12:03:06.220Z,1.73
2023-08-11T12:08:29.547Z,1.77
2023-08-11T12:13:33.986Z,1.75
2023-08-11T12:23:45.407Z,3.03
2023-08-11T12:28:49.808Z,2.05
2023-08-11T12:33:54.242Z,2.90
2023-08-11T12:39:00.196Z,3.47
2023-08-11T12:44:04.615Z,1.55
2023-08-11T12:49:10.690Z,1.92
2023-08-11T12:54:18.389Z,2.42
2023-08-11T12:59:22.902Z,3.58
2023-08-11T13:04:27.212Z,2.58
2023-08-11T13:09:32.871Z,1.92
2023-08-11T13:14:37.102Z,3.10
2023-08-11T13:19:41.685Z,4.07
2023-08-11T13:24:47.670Z,2.90
2023-08-11T13:29:52.690Z,3.17
2023-08-11T13:34:57.261Z,1.80
2023-08-11T13:40:03.375Z,2.60
2023-08-11T13:45:09.113Z,1.58
2023-08-11T13:50:13.272Z,4.10
2023-08-11T13:55:19.416Z,3.15
2023-08-11T14:00:24.428Z,2.97
2023-08-11T14:05:30.492Z,2.70
2023-08-11T14:10:36.282Z,3.08
2023-08-11T14:15:40.842Z,2.45
2023-08-11T14:20:45.375Z,3.38
2023-08-11T14:25:52.891Z,1.40
2023-08-11T14:30:57.217Z,4.25
2023-08-11T14:36:04.029Z,1.20
2023-08-11T14:41:18.687Z,2.70
2023-08-11T14:46:22.904Z,2.05
2023-08-11T14:51:27.445Z,2.22
2023-08-11T14:56:33.296Z,2.05
2023-08-11T15:01:37.506Z,2.35
2023-08-11T15:06:41.982Z,4.72
2023-08-11T15:11:48.603Z,4.90
2023-08-11T15:16:53.085Z,2.25
2023-08-11T15:21:57.306Z,2.55
2023-08-11T15:27:03.090Z,2.95
2023-08-11T15:32:07.748Z,2.55
2023-08-11T15:37:12.474Z,2.20
2023-08-11T15:42:18.374Z,1.80
2023-08-11T15:47:22.940Z,2.70
2023-08-11T15:52:27.482Z,9.20
2023-08-11T15:57:32.994Z,3.67
2023-08-11T16:02:37.818Z,2.17
2023-08-11T16:07:42.241Z,3.15
2023-08-11T16:12:47.899Z,2.80
2023-08-11T16:17:54.799Z,4.90
2023-08-11T16:22:59.047Z,4.88
2023-08-11T16:28:05.428Z,4.57
2023-08-11T16:33:09.641Z,3.53
2023-08-11T16:38:14.144Z,4.85
2023-08-11T16:43:20.144Z,4.30
2023-08-11T16:48:24.395Z,3.67
